CZFN/ZFN METAR and TAF weather

Enter ICAO airport designator
Station Type Date Time Source
CZFN METAR 2019/10/17 23:00 UTC NOAA

CZFN 172300Z 06007KT 8SM SN BR OVC028 OVC037 00/00 A2946 RMK SC8SC1 SC TR S07 AFT 15UTC/07/ SNW CVR/ MUCH LOOSE LAST STFD OB/ NEXT 181500 UTC SLP985


Station Type Date Time Source
CZFN Decoded METAR 2019/10/17 23:00 UTC NOAA

Fort Norman Airport, Canada (CZFN) 64-55N 125-34W
Oct 17, 2019 - 07:00 PM EDT / 2019.10.17 2300 UTC
Wind: from the ENE (060 degrees) at 8 MPH (7 KT):0
Visibility: 8 mile(s):0
Sky conditions: overcast
Weather: snow; mist
Temperature: 32 F (0 C)
Windchill: 24 F (-4 C):1
Dew Point: 32 F (0 C)
Relative Humidity: 100%
Pressure (altimeter): 29.46 in. Hg (997 hPa)
ob: CZFN 172300Z 06007KT 8SM SN BR OVC028 OVC037 00/00 A2946 RMK SC8SC1 SC TR S07 AFT 15UTC/07/ SNW CVR/ MUCH LOOSE LAST STFD OB/ NEXT 181500 UTC SLP985
cycle: 23

Station Type Date Time Source
CZFN TAF UTC NOAA

Error!

Example: see airport list